Terminal Aerodrome Forecast
Issued by NWS Salt Lake City, UT

Home | Current Version | Previous Version | Text Only | Print | Product List | Glossary On
Versions: 1 2 3 4 5 6 7 8 9 10 11 12 13
000
FTUS45 KSLC 060539
TAFCDC
TAF
KCDC 060539Z 0606/0706 19007KT P6SM BKN200
     FM061700 20014G24KT P6SM SCT100 BKN200
     FM070000 19010G20KT P6SM VCSH BKN060 BKN100=

USA.gov is the U.S. government's official web portal to all federal, state and local government web resources and services.